.
WxDataArchive / Data Records for 2009-06-04
2009-06-03 June 2009 2009-06-05

Data Records for Thursday, 04 June 2009

Time	Temp	Chill	HIndex	Humid	Dewpt	 Wind 	HiWind	WindDir	Rain 	Barom 
-----	----	-----	------	-----	-----	------	------	-------	-----	----- 
00:00	50.1	50.1	50.1	92	47.9	0	0	---	0.00	30.110 
00:05	50.1	50.1	50.1	92	47.9	0	0	---	0.00	30.110 
00:10	49.9	49.9	49.9	93	48.0	0	0	---	0.00	30.110 
00:15	49.8	49.8	49.8	93	47.9	0	0	---	0.00	30.110 
00:20	49.5	49.5	49.5	93	47.6	0	0	---	0.00	30.110 
00:25	49.4	49.4	49.4	93	47.5	0	0	---	0.00	30.110 
00:30	49.4	49.4	49.4	93	47.5	0	0	---	0.00	30.109 
00:35	49.2	49.2	49.2	93	47.3	0	0	---	0.00	30.109 
00:40	49.1	49.1	49.1	93	47.2	0	0	---	0.00	30.109 
00:45	48.9	48.9	48.9	93	47.0	0	0	---	0.00	30.109 
00:50	48.9	48.9	48.9	93	47.0	0	0	---	0.00	30.109 
00:55	48.8	48.8	48.8	93	46.9	0	0	---	0.00	30.109 
01:00	48.6	48.6	48.6	93	46.7	0	0	---	0.00	30.105 
01:05	48.6	48.6	48.6	93	46.7	0	0	---	0.00	30.105 
01:10	48.5	48.5	48.5	93	46.6	0	0	---	0.00	30.105 
01:15	48.3	48.3	48.3	94	46.7	0	0	---	0.00	30.098 
01:20	48.2	48.2	48.2	94	46.6	0	0	---	0.00	30.098 
01:25	48.2	48.2	48.2	94	46.6	0	0	---	0.00	30.098 
01:30	48.0	48.0	48.0	94	46.4	0	0	---	0.00	30.096 
01:35	48.0	48.0	48.0	94	46.4	0	0	---	0.00	30.096 
01:40	48.0	48.0	48.0	94	46.4	0	0	---	0.00	30.096 
01:45	47.9	47.9	47.9	94	46.3	0	0	---	0.00	30.101 
01:50	47.7	47.7	47.7	94	46.1	0	0	---	0.00	30.101 
01:55	47.6	47.6	47.6	94	46.0	0	0	---	0.00	30.101 
02:00	47.6	47.6	47.6	94	46.0	0	0	---	0.00	30.099 
02:05	47.6	47.6	47.6	94	46.0	0	0	---	0.00	30.099 
02:10	47.6	47.6	47.6	94	46.0	0	0	---	0.00	30.099 
02:15	47.4	47.4	47.4	94	45.8	0	0	---	0.00	30.097 
02:20	47.4	47.4	47.4	94	45.8	0	0	---	0.00	30.097 
02:25	47.4	47.4	47.4	95	46.0	0	0	---	0.00	30.097 
02:30	47.4	47.4	47.4	95	46.0	0	0	---	0.00	30.096 
02:35	47.4	47.4	47.4	95	46.0	0	0	---	0.00	30.096 
02:40	47.6	47.6	47.6	95	46.2	0	0	---	0.00	30.096 
02:45	47.7	47.7	47.7	95	46.3	0	0	---	0.00	30.096 
02:50	47.9	47.9	47.9	95	46.5	0	0	---	0.00	30.096 
02:55	48.0	48.0	48.0	95	46.6	0	0	---	0.00	30.096 
03:00	48.2	48.2	48.2	95	46.8	0	0	---	0.00	30.094 
03:05	48.5	48.5	48.5	95	47.1	0	0	---	0.00	30.094 
03:10	48.6	48.6	48.6	95	47.2	0	0	---	0.00	30.094 
03:15	48.8	48.8	48.8	95	47.4	0	0	---	0.00	30.082 
03:20	48.9	48.9	48.9	95	47.5	0	0	---	0.00	30.082 
03:25	48.8	48.8	48.8	95	47.4	0	0	---	0.00	30.082 
03:30	48.8	48.8	48.8	95	47.4	0	0	---	0.00	30.081 
03:35	48.6	48.6	48.6	95	47.2	0	0	---	0.00	30.081 
03:40	48.5	48.5	48.5	95	47.1	0	0	---	0.00	30.081 
03:45	48.2	48.2	48.2	95	46.8	0	0	---	0.00	30.080 
03:50	48.0	48.0	48.0	95	46.6	0	0	---	0.00	30.080 
03:55	47.9	47.9	47.9	95	46.5	0	1	90	0.00	30.080 
04:00	47.7	47.7	47.7	95	46.3	0	0	---	0.00	30.081 
04:05	47.6	47.6	47.6	95	46.2	0	0	---	0.00	30.081 
04:10	47.4	47.4	47.4	95	46.0	0	0	---	0.00	30.081 
04:15	47.4	47.4	47.4	95	46.0	0	0	---	0.00	30.079 
04:20	47.3	47.3	47.3	95	45.9	0	0	---	0.00	30.079 
04:25	47.1	47.1	47.1	95	45.7	0	0	---	0.00	30.079 
04:30	47.0	47.0	47.0	95	45.6	0	0	---	0.00	30.079 
04:35	47.0	47.0	47.0	95	45.6	0	0	---	0.00	30.079 
04:40	46.8	46.8	46.8	95	45.4	0	0	---	0.00	30.079 
04:45	46.8	46.8	46.8	95	45.4	0	0	---	0.00	30.078 
04:50	46.7	46.7	46.7	96	45.6	0	0	---	0.00	30.078 
04:55	46.7	46.7	46.7	95	45.3	0	0	---	0.00	30.078 
05:00	46.5	46.5	46.5	96	45.4	0	0	---	0.00	30.080 
05:05	46.5	46.5	46.5	96	45.4	0	0	---	0.00	30.080 
05:10	46.4	46.4	46.4	96	45.3	0	0	---	0.00	30.080 
05:15	46.4	46.4	46.4	95	45.0	0	0	---	0.00	30.079 
05:20	46.4	46.4	46.4	96	45.3	0	0	---	0.00	30.079 
05:25	46.4	46.4	46.4	96	45.3	0	0	---	0.00	30.079 
05:30	46.4	46.4	46.4	96	45.3	0	0	---	0.00	30.079 
05:35	46.2	46.2	46.2	96	45.1	0	0	---	0.00	30.079 
05:40	46.2	46.2	46.2	96	45.1	0	0	---	0.00	30.079 
05:45	46.1	46.1	46.1	96	45.0	0	0	---	0.00	30.079 
05:50	46.1	46.1	46.1	96	45.0	0	0	---	0.00	30.079 
05:55	46.0	46.0	46.0	96	44.9	0	0	---	0.00	30.079 
06:00	45.8	45.8	45.8	96	44.7	0	0	---	0.00	30.077 
06:05	45.8	45.8	45.8	96	44.7	0	0	---	0.00	30.077 
06:10	45.7	45.7	45.7	96	44.6	0	0	---	0.00	30.077 
06:15	45.5	45.5	45.5	96	44.4	0	0	---	0.00	30.077 
06:20	45.5	45.5	45.5	96	44.4	0	0	---	0.00	30.077 
06:25	45.4	45.4	45.4	96	44.3	0	0	---	0.00	30.077 
06:30	45.4	45.4	45.4	96	44.3	0	0	---	0.00	30.077 
06:35	45.5	45.5	45.5	96	44.4	0	0	---	0.00	30.077 
06:40	45.5	45.5	45.5	96	44.4	0	0	---	0.00	30.077 
06:45	45.7	45.7	45.7	96	44.6	0	0	---	0.00	30.078 
06:50	45.8	45.8	45.8	96	44.7	0	1	90	0.00	30.078 
06:55	45.8	45.8	45.8	96	44.7	0	0	---	0.00	30.078 
07:00	46.0	46.0	46.0	96	44.9	0	0	---	0.00	30.078 
07:05	46.2	46.2	46.2	96	45.1	0	0	---	0.00	30.078 
07:10	46.7	46.7	46.7	96	45.6	0	0	---	0.00	30.078 
07:15	47.0	47.0	47.0	96	45.9	0	0	---	0.00	30.078 
07:20	47.6	47.6	47.6	96	46.5	0	0	---	0.00	30.078 
07:25	48.2	48.2	48.2	96	47.1	0	0	---	0.00	30.078 
07:30	49.2	49.2	49.2	97	48.4	0	0	---	0.00	30.078 
07:35	50.4	50.4	50.4	97	49.6	0	1	90	0.00	30.078 
07:40	51.6	51.6	51.6	97	50.8	0	1	90	0.00	30.078 
07:45	52.2	52.2	52.2	97	51.4	1	2	90	0.00	30.079 
07:50	52.3	52.3	52.3	96	51.2	1	4	90	0.00	30.079 
07:55	52.2	52.2	52.2	96	51.1	1	3	90	0.00	30.079 
08:00	52.3	52.3	52.3	96	51.2	1	3	90	0.00	30.081 
08:05	52.5	52.5	52.5	94	50.8	1	3	90	0.00	30.081 
08:10	52.8	52.8	52.8	94	51.1	1	3	112	0.00	30.081 
08:15	53.5	53.5	53.5	92	51.2	0	2	112	0.00	30.085 
08:20	53.6	53.6	53.6	90	50.7	1	4	90	0.00	30.085 
08:25	53.9	53.9	53.9	88	50.4	2	4	90	0.00	30.085 
08:30	54.4	54.4	54.4	86	50.3	2	4	90	0.00	30.088 
08:35	55.0	55.0	55.0	86	50.9	1	2	112	0.00	30.088 
08:40	55.4	55.4	55.4	84	50.6	1	3	112	0.00	30.088 
08:45	55.9	55.9	55.9	80	49.8	2	4	112	0.00	30.084 
08:50	56.3	56.3	56.3	79	49.9	1	4	112	0.00	30.084 
08:55	56.5	56.5	56.5	76	49.0	3	5	90	0.00	30.084 
09:00	56.6	56.6	56.6	76	49.1	2	4	112	0.00	30.082 
09:05	57.0	57.0	57.0	76	49.5	1	3	112	0.00	30.082 
09:10	57.5	57.5	57.5	73	48.9	1	3	112	0.00	30.082 
09:15	58.0	58.0	58.0	71	48.6	2	3	112	0.00	30.090 
09:20	58.0	58.0	58.0	69	47.9	2	5	90	0.00	30.090 
09:25	58.3	58.3	58.3	72	49.3	2	5	90	0.00	30.090 
09:30	58.7	58.7	58.7	71	49.3	2	6	68	0.00	30.090 
09:35	58.9	58.9	58.9	69	48.7	2	5	90	0.00	30.090 
09:40	58.9	58.9	58.9	68	48.4	3	6	90	0.00	30.090 
09:45	59.0	59.0	59.0	69	48.8	2	5	112	0.00	30.092 
09:50	59.2	59.2	59.2	71	49.8	1	4	90	0.00	30.092 
09:55	59.3	59.3	59.3	70	49.5	2	7	112	0.00	30.092 
10:00	59.5	59.5	59.5	69	49.3	2	5	112	0.00	30.092 
10:05	59.9	59.9	59.9	69	49.7	2	6	90	0.00	30.092 
10:10	59.9	59.9	59.9	69	49.7	2	5	90	0.00	30.092 
10:15	59.8	59.8	59.8	68	49.2	3	6	90	0.00	30.089 
10:20	60.2	60.2	60.2	70	50.4	1	4	135	0.00	30.089 
10:25	60.5	60.5	60.5	67	49.5	2	5	90	0.00	30.089 
10:30	60.7	60.7	60.7	65	48.9	2	4	90	0.00	30.089 
10:35	60.5	60.5	60.5	66	49.1	2	4	90	0.00	30.089 
10:40	60.4	60.4	60.4	69	50.2	2	6	112	0.00	30.089 
10:45	60.7	60.7	60.7	68	50.1	2	5	90	0.00	30.080 
10:50	60.9	60.9	60.9	66	49.5	3	6	90	0.00	30.080 
10:55	60.9	60.9	60.9	66	49.5	2	6	90	0.00	30.080 
11:00	61.2	61.2	61.2	65	49.3	2	5	112	0.00	30.076 
11:05	61.3	61.3	61.3	64	49.0	2	6	90	0.00	30.076 
11:10	61.2	61.2	61.2	67	50.2	3	6	90	0.00	30.076 
11:15	61.0	61.0	61.0	67	50.0	1	4	112	0.00	30.077 
11:20	61.5	61.5	61.5	69	51.2	1	4	112	0.00	30.077 
11:25	62.4	62.4	62.4	65	50.5	1	5	68	0.00	30.077 
11:30	62.7	62.7	62.7	63	49.9	3	6	90	0.00	30.074 
11:35	62.6	62.6	62.6	63	49.8	2	6	68	0.00	30.074 
11:40	62.6	62.6	62.6	62	49.4	2	6	112	0.00	30.074 
11:45	62.7	62.7	62.7	63	49.9	2	7	90	0.00	30.075 
11:50	63.1	63.1	63.1	61	49.4	2	6	90	0.00	30.075 
11:55	62.9	62.9	62.9	63	50.1	2	7	90	0.00	30.075 
12:00	62.9	62.9	62.9	59	48.3	2	7	112	0.00	30.073 
12:05	63.1	63.1	63.1	63	50.3	1	5	90	0.00	30.073 
12:10	63.7	63.7	63.7	58	48.6	2	6	112	0.00	30.073 
12:15	64.0	64.0	64.0	58	48.9	1	3	112	0.00	30.070 
12:20	64.5	64.5	64.5	56	48.4	2	5	90	0.00	30.070 
12:25	64.3	64.3	64.3	58	49.2	2	7	112	0.00	30.070 
12:30	64.2	64.2	64.2	60	50.0	1	5	90	0.00	30.070 
12:35	64.3	64.3	64.3	56	48.3	2	7	112	0.00	30.070 
12:40	64.5	64.5	64.5	61	50.7	1	4	90	0.00	30.070 
12:45	64.0	64.0	64.0	55	47.5	2	5	112	0.00	30.067 
12:50	63.9	63.9	63.9	53	46.4	2	6	112	0.00	30.067 
12:55	64.0	64.0	64.0	51	45.5	3	7	112	0.00	30.067 
13:00	64.0	64.0	64.0	50	45.0	2	4	90	0.00	30.063 
13:05	64.3	64.3	64.3	54	47.3	1	4	112	0.00	30.063 
13:10	64.5	64.5	64.5	48	44.4	3	11	90	0.00	30.063 
13:15	64.7	64.7	64.7	52	46.7	2	5	90	0.00	30.059 
13:20	65.2	65.2	65.2	52	47.1	2	6	112	0.00	30.059 
13:25	65.6	65.6	65.6	46	44.3	2	6	90	0.00	30.059 
13:30	65.6	65.6	65.6	49	45.9	3	9	112	0.00	30.055 
13:35	66.0	66.0	66.0	45	44.0	2	5	112	0.00	30.055 
13:40	65.8	65.8	65.8	46	44.4	3	10	90	0.00	30.055 
13:45	65.6	65.6	65.6	46	44.3	4	7	112	0.00	30.054 
13:50	65.6	65.6	65.6	46	44.3	3	8	112	0.00	30.054 
13:55	65.8	65.8	65.8	46	44.4	2	9	112	0.00	30.054 
14:00	66.3	66.3	66.3	49	46.6	1	4	112	0.00	30.048 
14:05	66.6	66.6	66.6	47	45.7	1	3	112	0.00	30.048 
14:10	66.9	66.9	66.9	42	43.1	2	5	112	0.00	30.048 
14:15	66.9	66.9	66.9	44	44.3	2	7	112	0.00	30.043 
14:20	66.6	66.6	66.6	45	44.6	3	13	90	0.00	30.043 
14:25	66.1	66.1	66.1	44	43.5	4	10	112	0.00	30.043 
14:30	66.0	66.0	66.0	50	46.8	3	9	112	0.00	30.042 
14:35	66.1	66.1	66.1	50	46.9	2	6	90	0.00	30.042 
14:40	66.3	66.3	66.3	43	43.1	2	4	90	0.00	30.042 
14:45	66.3	66.3	66.3	48	46.0	3	7	90	0.00	30.041 
14:50	66.6	66.6	66.6	46	45.2	3	6	112	0.00	30.041 
14:55	66.6	66.6	66.6	48	46.3	3	9	112	0.00	30.041 
15:00	66.6	66.6	66.6	46	45.2	2	10	90	0.00	30.037 
15:05	66.8	66.8	66.8	50	47.6	1	6	90	0.00	30.037 
15:10	66.9	66.9	66.9	46	45.4	1	5	45	0.00	30.037 
15:15	67.4	67.4	67.4	51	48.6	1	4	112	0.00	30.032 
15:20	67.6	67.6	67.6	46	46.1	1	5	112	0.00	30.032 
15:25	67.4	67.4	67.4	49	47.6	2	7	90	0.00	30.032 
15:30	67.3	67.3	67.3	45	45.2	3	7	112	0.00	30.028 
15:35	67.1	67.1	67.1	44	44.5	2	7	112	0.00	30.028 
15:40	67.3	67.3	67.3	48	46.9	1	6	90	0.00	30.028 
15:45	67.8	67.8	67.8	44	45.1	1	4	90	0.00	30.024 
15:50	67.9	67.9	67.9	44	45.2	2	6	112	0.00	30.024 
15:55	67.6	67.6	67.6	43	44.3	2	5	90	0.00	30.024 
16:00	67.6	67.6	67.6	45	45.5	2	5	112	0.00	30.015 
16:05	67.6	67.6	67.6	44	44.9	1	4	90	0.00	30.015 
16:10	67.6	67.6	67.6	43	44.3	2	6	90	0.00	30.015 
16:15	67.4	67.4	67.4	39	41.6	4	10	90	0.00	30.018 
16:20	67.6	67.6	67.6	44	44.9	1	4	90	0.00	30.018 
16:25	67.6	67.6	67.6	41	43.1	2	7	112	0.00	30.018 
16:30	67.6	67.6	67.6	44	44.9	2	10	90	0.00	30.010 
16:35	67.6	67.6	67.6	44	44.9	3	6	90	0.00	30.010 
16:40	67.8	67.8	67.8	44	45.1	1	4	112	0.00	30.010 
16:45	67.8	67.8	67.8	43	44.5	2	5	112	0.00	30.009 
16:50	67.9	67.9	67.9	44	45.2	1	3	112	0.00	30.009 
16:55	67.9	67.9	67.9	40	42.7	1	4	112	0.00	30.009 
17:00	67.9	67.9	67.9	41	43.3	1	5	112	0.00	30.006 
17:05	67.9	67.9	67.9	41	43.3	0	1	112	0.00	30.006 
17:10	67.8	67.8	67.8	43	44.5	0	2	112	0.00	30.006 
17:15	67.8	67.8	67.8	38	41.3	1	5	112	0.00	29.999 
17:20	67.8	67.8	67.8	40	42.6	2	4	112	0.00	29.999 
17:25	67.6	67.6	67.6	39	41.8	2	5	112	0.00	29.999 
17:30	67.4	67.4	67.4	41	42.9	1	4	112	0.00	29.995 
17:35	67.6	67.6	67.6	42	43.7	0	2	112	0.00	29.995 
17:40	67.6	67.6	67.6	39	41.8	1	3	112	0.00	29.995 
17:45	67.9	67.9	67.9	42	44.0	1	4	112	0.00	29.994 
17:50	67.9	67.9	67.9	39	42.0	1	3	112	0.00	29.994 
17:55	68.1	68.1	68.1	41	43.5	1	5	112	0.00	29.994 
18:00	68.1	68.1	68.1	39	42.2	1	4	112	0.00	29.986 
18:05	67.9	67.9	67.9	40	42.7	1	4	135	0.00	29.986 
18:10	67.8	67.8	67.8	37	40.6	1	6	90	0.00	29.986 
18:15	67.8	67.8	67.8	39	41.9	3	5	90	0.00	29.985 
18:20	67.4	67.4	67.4	37	40.2	3	7	90	0.00	29.985 
18:25	67.3	67.3	67.3	37	40.1	2	6	112	0.00	29.985 
18:30	67.1	67.1	67.1	39	41.3	0	1	112	0.00	29.982 
18:35	66.9	66.9	66.9	39	41.1	0	1	112	0.00	29.982 
18:40	66.8	66.8	66.8	38	40.4	1	2	112	0.00	29.982 
18:45	66.6	66.6	66.6	39	40.9	0	3	135	0.00	29.980 
18:50	66.4	66.4	66.4	39	40.7	0	2	135	0.00	29.980 
18:55	66.3	66.3	66.3	36	38.5	1	6	112	0.00	29.980 
19:00	66.1	66.1	66.1	36	38.4	0	2	112	0.00	29.984 
19:05	66.3	66.3	66.3	33	36.3	2	6	90	0.00	29.984 
19:10	66.3	66.3	66.3	35	37.8	1	3	90	0.00	29.984 
19:15	66.3	66.3	66.3	31	34.8	0	3	112	0.00	29.979 
19:20	66.1	66.1	66.1	33	36.2	0	3	135	0.00	29.979 
19:25	66.1	66.1	66.1	33	36.2	0	2	90	0.00	29.979 
19:30	66.1	66.1	66.1	37	39.1	0	1	90	0.00	29.982 
19:35	66.0	66.0	66.0	35	37.6	0	2	90	0.00	29.982 
19:40	66.0	66.0	66.0	34	36.8	1	3	90	0.00	29.982 
19:45	65.8	65.8	65.8	35	37.4	1	2	135	0.00	29.979 
19:50	65.6	65.6	65.6	35	37.2	1	5	135	0.00	29.979 
19:55	65.3	65.3	65.3	36	37.7	0	2	135	0.00	29.979 
20:00	65.2	65.2	65.2	39	39.6	0	1	135	0.00	29.983 
20:05	65.0	65.0	65.0	39	39.4	0	1	135	0.00	29.983 
20:10	64.5	64.5	64.5	40	39.6	0	1	135	0.00	29.983 
20:15	64.3	64.3	64.3	42	40.7	0	0	---	0.00	29.984 
20:20	64.2	64.2	64.2	42	40.6	0	3	135	0.00	29.984 
20:25	64.0	64.0	64.0	43	41.1	0	1	135	0.00	29.984 
20:30	63.7	63.7	63.7	43	40.8	0	0	---	0.00	29.987 
20:35	63.5	63.5	63.5	42	40.0	0	1	135	0.00	29.987 
20:40	63.2	63.2	63.2	44	40.9	0	0	---	0.00	29.987 
20:45	62.9	62.9	62.9	44	40.6	0	0	---	0.00	29.986 
20:50	62.6	62.6	62.6	44	40.4	0	0	---	0.00	29.986 
20:55	62.1	62.1	62.1	45	40.5	0	0	---	0.00	29.986 
21:00	61.6	61.6	61.6	45	40.0	0	0	---	0.00	29.990 
21:05	61.2	61.2	61.2	45	39.7	0	0	---	0.00	29.990 
21:10	60.7	60.7	60.7	46	39.8	0	0	---	0.00	29.990 
21:15	60.2	60.2	60.2	47	39.9	0	0	---	0.00	29.987 
21:20	60.1	60.1	60.1	46	39.2	2	5	90	0.00	29.987 
21:25	60.4	60.4	60.4	45	39.0	1	3	90	0.00	29.987 
21:30	60.4	60.4	60.4	46	39.5	0	1	90	0.00	29.988 
21:35	60.1	60.1	60.1	47	39.8	0	1	90	0.00	29.988 
21:40	59.8	59.8	59.8	47	39.5	0	0	---	0.00	29.988 
21:45	59.5	59.5	59.5	49	40.3	0	1	90	0.00	29.989 
21:50	59.0	59.0	59.0	50	40.4	0	0	---	0.00	29.989 
21:55	58.6	58.6	58.6	51	40.5	0	0	---	0.00	29.989 
22:00	58.1	58.1	58.1	52	40.6	0	0	---	0.00	29.995 
22:05	57.6	57.6	57.6	54	41.1	0	0	---	0.00	29.995 
22:10	57.2	57.2	57.2	55	41.2	0	0	---	0.00	29.995 
22:15	56.7	56.7	56.7	55	40.7	0	0	---	0.00	29.998 
22:20	56.3	56.3	56.3	57	41.3	0	0	---	0.00	29.998 
22:25	56.0	56.0	56.0	58	41.4	0	0	---	0.00	29.998 
22:30	55.7	55.7	55.7	58	41.2	0	0	---	0.00	30.002 
22:35	55.4	55.4	55.4	59	41.3	0	0	---	0.00	30.002 
22:40	55.1	55.1	55.1	59	41.0	0	0	---	0.00	30.002 
22:45	54.8	54.8	54.8	59	40.7	0	0	---	0.00	30.005 
22:50	54.5	54.5	54.5	60	40.9	0	0	---	0.00	30.005 
22:55	54.2	54.2	54.2	61	41.0	0	0	---	0.00	30.005 
23:00	53.8	53.8	53.8	62	41.1	0	0	---	0.00	30.007 
23:05	53.5	53.5	53.5	62	40.8	0	0	---	0.00	30.007 
23:10	53.1	53.1	53.1	63	40.8	0	0	---	0.00	30.007 
23:15	52.8	52.8	52.8	66	41.8	0	0	---	0.00	30.005 
23:20	52.5	52.5	52.5	66	41.5	0	0	---	0.00	30.005 
23:25	52.2	52.2	52.2	67	41.6	0	0	---	0.00	30.005 
23:30	51.7	51.7	51.7	68	41.5	0	0	---	0.00	30.002 
23:35	51.4	51.4	51.4	69	41.6	0	0	---	0.00	30.002 
23:40	51.0	51.0	51.0	70	41.6	0	0	---	0.00	30.002 
23:45	50.7	50.7	50.7	71	41.6	0	0	---	0.00	29.999 
23:50	50.4	50.4	50.4	73	42.1	0	0	---	0.00	29.999 
23:55	50.1	50.1	50.1	73	41.8	0	0	---	0.00	29.999 

CoCoRaHS
IN-AL-39
A2 Web Hosting
Creative Commons License
GoDaddy
search engine by freefind advanced

loaded 2018-11-13 23:35:59 • last modified 2010-11-18 10:43:29
Privacy PolicyDisclaimer
• wx.awcolley.com is powered by PmWiki v.2002016 •
• all content (unless otherwise noted) © 2018 A W Colley